Wetterdaten: aktuell Montag, 23.09.2019 02:48
Datum Zeit Temp. 2m Temp. 5cm Temp. APlatz Temp. Bachw Feuchte 2m Feuchte AP Feuchte BW Luftdruck Regen Wind Richtung Richtung Taupunkt Windchill Windben
23.09.2019 02:48 7,0 C 7,2 C 7,3 C 7,0 C 86 % 86 % 94 % 1014,1 hPa 0,0 l/m 0,0 km/h (0 Bft) W 270 5,1 C 7,0 C 0,0 km/h (0 Bft)
23.09.2019 02:46 7,0 C 7,2 C 7,3 C 7,0 C 86 % 86 % 94 % 1014,1 hPa 0,0 l/m 0,0 km/h (0 Bft) W 270 5,1 C 7,0 C 0,0 km/h (0 Bft)
23.09.2019 02:44 7,0 C 7,2 C 7,3 C 7,0 C 86 % 86 % 94 % 1014,1 hPa 0,0 l/m 0,0 km/h (0 Bft) W 270 5,1 C 7,0 C 0,0 km/h (0 Bft)
23.09.2019 02:42 7,0 C 7,3 C 7,2 C 7,0 C 86 % 86 % 94 % 1014,1 hPa 0,0 l/m 0,0 km/h (0 Bft) O-SO 112 5,0 C 7,0 C 0,0 km/h (0 Bft)
23.09.2019 02:40 6,9 C 7,2 C 7,2 C 6,9 C 86 % 86 % 94 % 1014,1 hPa 0,0 l/m 0,0 km/h (0 Bft) S-SW 202 5,0 C 6,9 C 0,0 km/h (0 Bft)
23.09.2019 02:38 6,8 C 7,2 C 7,2 C 6,8 C 86 % 86 % 94 % 1014,1 hPa 0,0 l/m 0,0 km/h (0 Bft) S-SO 157 5,0 C 6,8 C 0,0 km/h (0 Bft)
23.09.2019 02:36 6,8 C 7,1 C 7,2 C 6,8 C 86 % 86 % 94 % 1014,1 hPa 0,0 l/m 0,0 km/h (0 Bft) S-SO 157 5,0 C 6,8 C 0,0 km/h (0 Bft)
23.09.2019 02:34 6,7 C 6,9 C 7,2 C 6,7 C 86 % 86 % 94 % 1014,3 hPa 0,0 l/m 0,0 km/h (0 Bft) S-SO 157 5,0 C 6,7 C 0,0 km/h (0 Bft)
23.09.2019 02:32 6,7 C 6,8 C 7,1 C 6,7 C 86 % 86 % 94 % 1014,3 hPa 0,0 l/m 0,0 km/h (0 Bft) NW 315 4,9 C 6,7 C 0,0 km/h (0 Bft)
23.09.2019 02:30 6,7 C 6,8 C 7,0 C 6,7 C 86 % 86 % 94 % 1014,3 hPa 0,0 l/m 0,0 km/h (0 Bft) NW 315 4,8 C 6,7 C 0,0 km/h (0 Bft)
23.09.2019 02:28 6,8 C 6,8 C 6,9 C 6,8 C 86 % 86 % 94 % 1014,3 hPa 0,0 l/m 0,0 km/h (0 Bft) NW 315 4,7 C 6,8 C 0,0 km/h (0 Bft)
23.09.2019 02:26 6,8 C 6,7 C 6,9 C 6,8 C 86 % 86 % 94 % 1014,3 hPa 0,0 l/m 0,0 km/h (0 Bft) NW 315 4,7 C 6,8 C 0,0 km/h (0 Bft)
23.09.2019 02:24 6,7 C 6,7 C 6,8 C 6,7 C 86 % 86 % 94 % 1014,3 hPa 0,0 l/m 0,0 km/h (0 Bft) NW 315 4,6 C 6,7 C 0,0 km/h (0 Bft)
23.09.2019 02:22 6,7 C 6,6 C 6,8 C 6,7 C 86 % 86 % 94 % 1014,3 hPa 0,0 l/m 0,0 km/h (0 Bft) W-NW 292 4,6 C 6,7 C 0,0 km/h (0 Bft)
23.09.2019 02:20 6,6 C 6,6 C 6,7 C 6,6 C 86 % 86 % 93 % 1014,3 hPa 0,0 l/m 0,0 km/h (0 Bft) S 180 4,5 C 6,6 C 0,0 km/h (0 Bft)
23.09.2019 02:18 6,6 C 6,4 C 6,7 C 6,6 C 86 % 86 % 93 % 1014,3 hPa 0,0 l/m 0,0 km/h (0 Bft) S 180 4,5 C 6,6 C 0,0 km/h (0 Bft)
23.09.2019 02:16 6,5 C 6,4 C 6,7 C 6,5 C 86 % 86 % 93 % 1014,3 hPa 0,0 l/m 0,0 km/h (0 Bft) S 180 4,5 C 6,5 C 0,0 km/h (0 Bft)
23.09.2019 02:14 6,5 C 6,3 C 6,7 C 6,5 C 86 % 86 % 93 % 1014,3 hPa 0,0 l/m 0,0 km/h (0 Bft) S-SO 157 4,5 C 6,5 C 0,0 km/h (0 Bft)
23.09.2019 02:12 6,5 C 6,2 C 6,7 C 6,5 C 86 % 86 % 93 % 1014,3 hPa 0,0 l/m 0,0 km/h (0 Bft) S-SO 157 4,5 C 6,5 C 0,0 km/h (0 Bft)
23.09.2019 02:10 6,3 C 6,0 C 6,3 C 6,5 C 86 % 86 % 93 % 1014,3 hPa 0,0 l/m 0,0 km/h (0 Bft) S-SO 157 4,1 C 6,3 C 0,0 km/h (0 Bft)
23.09.2019 02:08 6,2 C 5,7 C 6,2 C 6,6 C 86 % 86 % 93 % 1014,3 hPa 0,0 l/m 0,0 km/h (0 Bft) S-SO 157 4,0 C 6,2 C 0,0 km/h (0 Bft)
23.09.2019 02:06 6,3 C 5,6 C 6,3 C 6,6 C 86 % 86 % 93 % 1014,3 hPa 0,0 l/m 0,0 km/h (0 Bft) SO 135 4,1 C 6,3 C 0,0 km/h (0 Bft)
23.09.2019 02:04 6,3 C 5,5 C 6,3 C 6,4 C 86 % 86 % 93 % 1014,3 hPa 0,0 l/m 0,0 km/h (0 Bft) SO 135 4,1 C 6,3 C 0,0 km/h (0 Bft)
23.09.2019 02:02 6,3 C 5,3 C 6,3 C 6,4 C 86 % 86 % 93 % 1014,3 hPa 0,0 l/m 0,0 km/h (0 Bft) SO 135 4,1 C 6,3 C 0,0 km/h (0 Bft)
23.09.2019 02:00 6,2 C 5,2 C 6,2 C 6,4 C 86 % 86 % 93 % 1014,3 hPa 0,0 l/m 0,0 km/h (0 Bft) W 270 4,0 C 6,2 C 0,0 km/h (0 Bft)
23.09.2019 01:58 6,2 C 5,2 C 6,2 C 6,4 C 86 % 86 % 93 % 1014,3 hPa 0,0 l/m 0,3 km/h (0 Bft) W 270 4,0 C 6,2 C 0,0 km/h (0 Bft)
23.09.2019 01:56 6,3 C 5,4 C 6,3 C 6,6 C 86 % 86 % 93 % 1014,3 hPa 0,0 l/m 0,3 km/h (0 Bft) W 270 4,1 C 6,3 C 0,0 km/h (0 Bft)
23.09.2019 01:54 6,4 C 5,4 C 6,4 C 6,6 C 86 % 86 % 93 % 1014,2 hPa 0,0 l/m 0,3 km/h (0 Bft) W 270 4,2 C 6,4 C 0,0 km/h (0 Bft)
23.09.2019 01:52 6,4 C 5,4 C 6,4 C 6,6 C 86 % 86 % 93 % 1014,2 hPa 0,0 l/m 0,3 km/h (0 Bft) W 270 4,2 C 6,4 C 0,0 km/h (0 Bft)
23.09.2019 01:50 6,5 C 5,4 C 6,5 C 6,7 C 86 % 86 % 94 % 1014,2 hPa 0,0 l/m 0,3 km/h (0 Bft) W 270 4,3 C 6,5 C 0,0 km/h (0 Bft)
23.09.2019 01:48 6,5 C 5,5 C 6,5 C 6,7 C 86 % 86 % 94 % 1014,2 hPa 0,0 l/m 0,0 km/h (0 Bft) S-SW 202 4,3 C 6,5 C 0,0 km/h (0 Bft)
23.09.2019 01:46 6,4 C 5,5 C 6,4 C 6,6 C 86 % 86 % 93 % 1014,2 hPa 0,0 l/m 0,0 km/h (0 Bft) S-SW 202 4,2 C 6,4 C 0,0 km/h (0 Bft)
23.09.2019 01:44 6,4 C 5,6 C 6,4 C 6,6 C 86 % 86 % 93 % 1014,2 hPa 0,0 l/m 0,0 km/h (0 Bft) S 180 4,2 C 6,4 C 0,0 km/h (0 Bft)
23.09.2019 01:42 6,3 C 5,6 C 6,3 C 6,6 C 86 % 86 % 93 % 1014,2 hPa 0,0 l/m 0,0 km/h (0 Bft) S 180 4,1 C 6,3 C 0,0 km/h (0 Bft)
23.09.2019 01:40 6,4 C 5,6 C 6,4 C 6,6 C 86 % 86 % 93 % 1014,2 hPa 0,0 l/m 0,0 km/h (0 Bft) S 180 4,2 C 6,4 C 0,0 km/h (0 Bft)
23.09.2019 01:38 6,4 C 5,6 C 6,4 C 6,6 C 86 % 86 % 93 % 1014,2 hPa 0,0 l/m 0,0 km/h (0 Bft) S 180 4,2 C 6,4 C 0,0 km/h (0 Bft)
23.09.2019 01:36 6,7 C 5,6 C 6,7 C 6,7 C 86 % 86 % 93 % 1014,2 hPa 0,0 l/m 0,0 km/h (0 Bft) S 180 4,5 C 6,7 C 0,0 km/h (0 Bft)
23.09.2019 01:34 6,4 C 5,5 C 6,4 C 6,7 C 86 % 86 % 93 % 1014,2 hPa 0,0 l/m 0,0 km/h (0 Bft) S 180 4,2 C 6,4 C 0,0 km/h (0 Bft)
23.09.2019 01:32 6,4 C 5,4 C 6,4 C 6,8 C 86 % 86 % 93 % 1014,2 hPa 0,0 l/m 0,0 km/h (0 Bft) S 180 4,2 C 6,4 C 0,0 km/h (0 Bft)
23.09.2019 01:30 6,4 C 5,4 C 6,4 C 7,0 C 86 % 86 % 93 % 1014,2 hPa 0,0 l/m 0,0 km/h (0 Bft) S-SW 202 4,2 C 6,4 C 0,0 km/h (0 Bft)
23.09.2019 01:28 6,4 C 5,4 C 6,4 C 6,9 C 86 % 86 % 93 % 1014,2 hPa 0,0 l/m 0,0 km/h (0 Bft) NO 45 4,2 C 6,4 C 0,0 km/h (0 Bft)
23.09.2019 01:26 6,4 C 5,5 C 6,4 C 6,8 C 86 % 86 % 93 % 1014,2 hPa 0,0 l/m 0,0 km/h (0 Bft) NO 45 4,2 C 6,4 C 0,0 km/h (0 Bft)
23.09.2019 01:24 6,5 C 5,7 C 6,5 C 6,8 C 85 % 85 % 93 % 1014,2 hPa 0,0 l/m 0,0 km/h (0 Bft) NO 45 4,2 C 6,5 C 0,0 km/h (0 Bft)
23.09.2019 01:22 6,5 C 5,7 C 6,5 C 6,9 C 85 % 85 % 93 % 1014,2 hPa 0,0 l/m 0,0 km/h (0 Bft) W 270 4,2 C 6,5 C 0,0 km/h (0 Bft)
23.09.2019 01:20 6,7 C 5,8 C 6,7 C 6,9 C 85 % 85 % 93 % 1014,2 hPa 0,0 l/m 0,0 km/h (0 Bft) W-NW 292 4,4 C 6,7 C 2,4 km/h (1 Bft)
23.09.2019 01:18 6,7 C 6,0 C 6,7 C 6,8 C 85 % 85 % 93 % 1014,2 hPa 0,0 l/m 0,0 km/h (0 Bft) W-NW 292 4,4 C 6,7 C 2,4 km/h (1 Bft)
23.09.2019 01:16 6,9 C 6,1 C 6,9 C 6,9 C 85 % 85 % 93 % 1014,2 hPa 0,0 l/m 0,0 km/h (0 Bft) NW 315 4,6 C 6,9 C 0,0 km/h (0 Bft)
23.09.2019 01:14 6,8 C 6,1 C 6,8 C 7,0 C 85 % 85 % 93 % 1014,2 hPa 0,0 l/m 0,0 km/h (0 Bft) S 180 4,5 C 6,8 C 0,0 km/h (0 Bft)
23.09.2019 01:12 6,8 C 6,1 C 6,8 C 7,0 C 85 % 85 % 93 % 1014,2 hPa 0,0 l/m 0,0 km/h (0 Bft) S-SO 157 4,5 C 6,8 C 0,0 km/h (0 Bft)
23.09.2019 01:10 6,7 C 6,1 C 6,7 C 6,9 C 85 % 85 % 93 % 1014,2 hPa 0,0 l/m 0,0 km/h (0 Bft) S-SO 157 4,4 C 6,7 C 0,0 km/h (0 Bft)
23.09.2019 01:08 6,5 C 6,0 C 6,5 C 6,8 C 85 % 85 % 93 % 1014,2 hPa 0,0 l/m 0,0 km/h (0 Bft) S-SO 157 4,2 C 6,5 C 0,0 km/h (0 Bft)
23.09.2019 01:06 6,4 C 5,8 C 6,4 C 6,9 C 85 % 85 % 93 % 1014,2 hPa 0,0 l/m 0,0 km/h (0 Bft) S-SO 157 4,1 C 6,4 C 0,0 km/h (0 Bft)
23.09.2019 01:04 6,3 C 5,8 C 6,3 C 7,0 C 85 % 85 % 93 % 1014,2 hPa 0,0 l/m 0,0 km/h (0 Bft) W-NW 292 4,0 C 6,3 C 0,0 km/h (0 Bft)
23.09.2019 01:02 6,1 C 5,7 C 6,1 C 6,9 C 85 % 85 % 93 % 1014,2 hPa 0,0 l/m 0,0 km/h (0 Bft) W-NW 292 3,8 C 6,1 C 0,0 km/h (0 Bft)
23.09.2019 01:00 6,1 C 5,6 C 6,1 C 7,0 C 85 % 85 % 93 % 1014,2 hPa 0,0 l/m 0,0 km/h (0 Bft) W-NW 292 3,8 C 6,1 C 0,0 km/h (0 Bft)
23.09.2019 00:58 6,1 C 5,6 C 6,1 C 7,0 C 85 % 85 % 93 % 1014,2 hPa 0,0 l/m 0,0 km/h (0 Bft) W-NW 292 3,8 C 6,1 C 0,0 km/h (0 Bft)
23.09.2019 00:56 6,1 C 5,6 C 6,1 C 7,0 C 85 % 85 % 93 % 1014,2 hPa 0,0 l/m 0,0 km/h (0 Bft) W-NW 292 3,8 C 6,1 C 0,0 km/h (0 Bft)
23.09.2019 00:54 6,3 C 5,5 C 6,3 C 7,2 C 85 % 85 % 93 % 1013,8 hPa 0,0 l/m 0,0 km/h (0 Bft) O-SO 112 4,0 C 6,3 C 0,0 km/h (0 Bft)
23.09.2019 00:52 6,3 C 5,4 C 6,3 C 7,1 C 85 % 85 % 93 % 1013,8 hPa 0,0 l/m 0,2 km/h (0 Bft) O-SO 112 4,0 C 6,3 C 0,0 km/h (0 Bft)
23.09.2019 00:50 6,6 C 5,4 C 6,6 C 7,2 C 85 % 85 % 93 % 1013,8 hPa 0,0 l/m 0,5 km/h (0 Bft) O-SO 112 4,3 C 6,6 C 0,0 km/h (0 Bft)
23.09.2019 00:48 6,8 C 5,5 C 6,8 C 7,2 C 85 % 85 % 93 % 1013,8 hPa 0,0 l/m 0,5 km/h (0 Bft) O-SO 112 4,5 C 6,8 C 0,0 km/h (0 Bft)
23.09.2019 00:46 6,9 C 5,6 C 6,9 C 7,3 C 85 % 85 % 93 % 1013,8 hPa 0,0 l/m 0,5 km/h (0 Bft) O-SO 112 4,6 C 6,9 C 0,0 km/h (0 Bft)
23.09.2019 00:44 7,2 C 5,3 C 7,2 C 7,4 C 85 % 85 % 93 % 1013,8 hPa 0,0 l/m 0,5 km/h (0 Bft) SO 135 4,9 C 7,2 C 3,9 km/h (1 Bft)
23.09.2019 00:42 7,2 C 5,2 C 7,2 C 7,3 C 85 % 85 % 93 % 1013,8 hPa 0,0 l/m 0,5 km/h (0 Bft) S-SO 157 4,9 C 7,2 C 3,9 km/h (1 Bft)
23.09.2019 00:40 7,1 C 5,3 C 7,1 C 7,2 C 85 % 85 % 93 % 1013,8 hPa 0,0 l/m 0,2 km/h (0 Bft) SW 225 4,8 C 7,1 C 2,4 km/h (1 Bft)
23.09.2019 00:38 7,3 C 5,5 C 7,3 C 7,3 C 85 % 85 % 93 % 1013,8 hPa 0,0 l/m 0,2 km/h (0 Bft) SW 225 4,9 C 7,3 C 0,0 km/h (0 Bft)
23.09.2019 00:36 7,4 C 5,7 C 7,6 C 7,4 C 85 % 85 % 93 % 1013,8 hPa 0,0 l/m 0,2 km/h (0 Bft) SW 225 5,2 C 7,4 C 0,0 km/h (0 Bft)
23.09.2019 00:34 7,4 C 5,8 C 7,6 C 7,4 C 85 % 85 % 93 % 1014,1 hPa 0,0 l/m 0,2 km/h (0 Bft) SW 225 5,2 C 7,4 C 3,1 km/h (1 Bft)
23.09.2019 00:32 7,4 C 6,1 C 7,8 C 7,4 C 85 % 85 % 93 % 1014,1 hPa 0,0 l/m 0,2 km/h (0 Bft) W 270 5,4 C 7,4 C 3,1 km/h (1 Bft)
23.09.2019 00:30 7,5 C 6,6 C 7,9 C 7,5 C 85 % 85 % 93 % 1014,1 hPa 0,0 l/m 0,2 km/h (0 Bft) O 90 5,5 C 7,5 C 0,0 km/h (0 Bft)
23.09.2019 00:28 7,5 C 6,8 C 7,9 C 7,5 C 85 % 85 % 93 % 1014,1 hPa 0,0 l/m 0,3 km/h (0 Bft) O 90 5,5 C 7,5 C 0,0 km/h (0 Bft)
23.09.2019 00:26 7,5 C 7,0 C 7,9 C 7,5 C 85 % 85 % 93 % 1014,1 hPa 0,0 l/m 0,6 km/h (0 Bft) O-NO 67 5,5 C 7,5 C 0,0 km/h (0 Bft)
23.09.2019 00:24 7,5 C 7,2 C 7,9 C 7,5 C 85 % 85 % 93 % 1014,1 hPa 0,0 l/m 1,3 km/h (1 Bft) NO 45 5,5 C 7,5 C 0,0 km/h (0 Bft)
23.09.2019 00:22 7,5 C 7,4 C 8,0 C 7,5 C 85 % 85 % 93 % 1014,1 hPa 0,0 l/m 1,3 km/h (1 Bft) O-NO 67 5,6 C 7,5 C 3,1 km/h (1 Bft)
23.09.2019 00:20 7,5 C 7,6 C 8,0 C 7,5 C 85 % 85 % 93 % 1014,1 hPa 0,0 l/m 1,6 km/h (1 Bft) NO 45 5,6 C 7,5 C 6,0 km/h (2 Bft)
23.09.2019 00:18 7,5 C 7,6 C 8,0 C 7,5 C 85 % 85 % 93 % 1014,1 hPa 0,0 l/m 1,4 km/h (1 Bft) O 90 5,6 C 7,5 C 5,3 km/h (1 Bft)
23.09.2019 00:16 7,4 C 7,6 C 7,9 C 7,4 C 85 % 85 % 93 % 1014,1 hPa 0,0 l/m 1,1 km/h (1 Bft) S-SO 157 5,5 C 7,4 C 6,0 km/h (2 Bft)
23.09.2019 00:14 7,4 C 7,1 C 7,8 C 7,4 C 85 % 85 % 93 % 1014,2 hPa 0,0 l/m 0,8 km/h (0 Bft) S-SO 157 5,4 C 7,4 C 6,0 km/h (2 Bft)
23.09.2019 00:12 7,4 C 7,1 C 7,6 C 7,4 C 85 % 85 % 93 % 1014,2 hPa 0,0 l/m 0,3 km/h (0 Bft) SO 135 5,2 C 7,4 C 3,6 km/h (1 Bft)
23.09.2019 00:10 7,4 C 7,0 C 7,6 C 7,4 C 85 % 85 % 93 % 1014,2 hPa 0,0 l/m 0,2 km/h (0 Bft) S-SO 157 5,2 C 7,4 C 3,6 km/h (1 Bft)
23.09.2019 00:08 7,4 C 6,9 C 7,6 C 7,4 C 85 % 85 % 93 % 1014,2 hPa 0,0 l/m 0,3 km/h (0 Bft) S 180 5,2 C 7,4 C 4,6 km/h (1 Bft)
23.09.2019 00:06 7,1 C 5,8 C 7,5 C 7,1 C 85 % 85 % 93 % 1014,2 hPa 0,0 l/m 0,5 km/h (0 Bft) SO 135 5,1 C 7,1 C 4,6 km/h (1 Bft)
23.09.2019 00:04 7,1 C 5,8 C 7,5 C 7,1 C 85 % 85 % 93 % 1014,2 hPa 0,0 l/m 0,5 km/h (0 Bft) SO 135 5,1 C 7,1 C 4,6 km/h (1 Bft)
23.09.2019 00:02 7,1 C 5,8 C 7,5 C 7,1 C 85 % 85 % 93 % 1014,2 hPa 0,0 l/m 0,5 km/h (0 Bft) SO 135 5,1 C 7,1 C 4,6 km/h (1 Bft)
23.09.2019 00:00 7,1 C 5,8 C 7,5 C 7,1 C 85 % 85 % 93 % 1014,2 hPa 0,0 l/m 0,5 km/h (0 Bft) SO 135 5,1 C 7,1 C 4,6 km/h (1 Bft)
_ Min-Zeit 00:56 00:42 00:56 01:58 00:00 00:00 00:00 00:36 - 00:54 - - 00:56 00:56 00:24
Minimum _ 6,1 C 5,2 C 6,1 C 6,4 C 85 % 85 % 93 % 1013,8 hPa - 0,0 km/h (0 Bft) - - 3,8 C 6,1 C 0,0 km/h (0 Bft)
_ Max-Zeit 00:18 00:16 00:18 00:18 01:26 01:26 01:48 01:56 00:00 00:20 - - 00:18 00:18 00:14
Maximum _ 7,5 C 7,6 C 8,0 C 7,5 C 86 % 86 % 94 % 1014,3 hPa 0,0 l/m 1,6 km/h
NO (1 Bft)
- - 5,6 C 7,5 C 6,0 km/h
S-SO (2 Bft)
Durchschnitt _ 6,8 C 6,1 C 6,9 C 6,9 C 85 % 85 % 93 % 1014,2 hPa #0,0 l/m 0,2 km/h (0 Bft) NO - 4,6 C 6,8 C 0,9 km/h (0 Bft)